CheckWX is a tool to help pilots better visualize weather data.  It is not intended as a substitute for an official pre-flight weather briefing.

12:20:56 UTC

ENRY METAR
Moss , Rygge Airport
Rygge, Norway
Current

31 mins ago

ENRY 191150Z 28002KT 5000 -DZ SCT002 BKN006 05/04 Q1007 BECMG BKN015
Observed
Nov-19 @ 11:50 UTC
Wind
  • 280° at 2 KTS
Visibility
5,000 meters
Flight Rules
IFR
Conditions
Light Drizzle
Cloud Levels
  • Scattered at 200' AGL
  • Broken at 600' AGL
Temperature
C / 41°F
Dewpoint
C / 39°F
Humidity
93%
Altimeter
29.73" Hg
Pressure
1006.92 hPa
Previous

1 hour ago

ENRY 191120Z 29003KT 250V320 5000 -RA SCT001 OVC005 05/04 Q1006 BECMG BKN015
Observed
Nov-19 @ 11:20 UTC
Wind
  • 290° at 3 KTS
Visibility
5,000 meters
Flight Rules
IFR
Conditions
Light Rain
Cloud Levels
  • Scattered at 100' AGL
  • Overcast at 500' AGL
Temperature
C / 41°F
Dewpoint
C / 39°F
Humidity
93%
Altimeter
29.7" Hg
Pressure
1005.92 hPa
Previous

2 hours ago

ENRY 191050Z VRB02KT 5000 DZ FEW002 OVC005 05/05 Q1006 BECMG -DZ BKN015
Observed
Nov-19 @ 10:50 UTC
Wind
  • Variable at 2 KTS
Visibility
5,000 meters
Flight Rules
IFR
Conditions
Drizzle
Cloud Levels
  • Few at 200' AGL
  • Overcast at 500' AGL
Temperature
C / 41°F
Dewpoint
C / 41°F
Humidity
100%
Altimeter
29.7" Hg
Pressure
1005.92 hPa